Time;durP1;ratioP1;P1;durP2;ratioP2;P2;SDS_P1;SDS_P2;PMS_P1;PMS_P2;Temp;Humidity;BMP_temperature;BMP_pressure;BME280_temperature;BME280_humidity;BME280_pressure;Samples;Min_cycle;Max_cycle;Signal;HPM_P1;HPM_P2
2021/11/09 00:00:34;;;;;;;8.63;6.70;;;9.80;58.20;;;;;;5006752;28;20445;-45
2021/11/09 00:03:00;;;;;;;9.97;6.93;;;9.60;58.30;;;;;;5006935;28;20278;-44
2021/11/09 00:05:29;;;;;;;10.07;8.07;;;9.70;58.60;;;;;;5008222;28;20472;-46
2021/11/09 00:07:57;;;;;;;9.63;7.13;;;9.60;58.70;;;;;;5007945;28;20445;-44
2021/11/09 00:10:26;;;;;;;8.47;7.00;;;9.50;58.30;;;;;;4985024;28;20449;-46
2021/11/09 00:13:03;;;;;;;9.33;7.47;;;9.10;59.10;;;;;;5003449;28;20448;-48
2021/11/09 00:15:30;;;;;;;7.90;7.10;;;8.70;60.10;;;;;;5003622;28;20445;-48
2021/11/09 00:17:58;;;;;;;8.07;6.70;;;8.80;60.80;;;;;;5005289;28;20465;-47
2021/11/09 00:20:26;;;;;;;10.03;6.70;;;8.70;60.10;;;;;;5006703;28;20524;-46
2021/11/09 00:22:53;;;;;;;7.73;6.40;;;8.50;60.70;;;;;;5005803;28;20449;-45
2021/11/09 00:25:20;;;;;;;11.10;6.97;;;8.40;61.30;;;;;;5007029;28;20445;-45
2021/11/09 00:27:47;;;;;;;8.53;6.90;;;8.60;61.70;;;;;;5008149;28;20780;-45
2021/11/09 00:30:14;;;;;;;7.40;6.30;;;8.80;61.10;;;;;;5004236;28;20781;-47
2021/11/09 00:32:43;;;;;;;10.80;7.20;;;8.90;60.10;;;;;;5009849;28;20655;-46
2021/11/09 00:35:10;;;;;;;10.00;7.23;;;9.00;59.30;;;;;;5008148;28;20467;-45
2021/11/09 00:37:36;;;;;;;11.27;7.90;;;9.00;58.80;;;;;;5009335;28;20488;-46
2021/11/09 00:40:03;;;;;;;9.33;6.70;;;9.10;58.60;;;;;;5007442;28;20491;-45
2021/11/09 00:42:29;;;;;;;14.70;7.10;;;9.20;58.50;;;;;;5008118;28;20261;-47
2021/11/09 00:44:54;;;;;;;10.00;6.87;;;9.20;58.90;;;;;;5007669;28;20477;-47
2021/11/09 00:47:20;;;;;;;11.07;6.97;;;9.20;58.30;;;;;;5008406;28;20194;-45
2021/11/09 00:49:46;;;;;;;7.90;7.03;;;9.20;58.30;;;;;;5009261;28;20555;-46
2021/11/09 00:52:12;;;;;;;11.10;7.23;;;9.20;58.40;;;;;;5007696;28;20441;-46
2021/11/09 00:54:39;;;;;;;15.20;9.47;;;9.30;58.50;;;;;;5010976;28;20217;-46
2021/11/09 00:57:05;;;;;;;8.93;6.63;;;8.70;59.50;;;;;;5009658;28;20480;-45
2021/11/09 00:59:31;;;;;;;9.27;7.23;;;8.60;60.40;;;;;;5007070;28;20461;-46
2021/11/09 01:01:57;;;;;;;11.17;7.70;;;8.70;60.70;;;;;;5007742;28;20957;-44
2021/11/09 01:04:23;;;;;;;8.57;5.90;;;8.80;60.10;;;;;;5007301;28;21981;-46
2021/11/09 01:06:49;;;;;;;8.27;6.20;;;8.90;59.70;;;;;;5008690;28;20952;-47
2021/11/09 01:09:14;;;;;;;11.93;7.73;;;8.90;59.60;;;;;;5009662;28;20469;-45
2021/11/09 01:11:40;;;;;;;12.90;7.20;;;9.00;59.50;;;;;;5006228;28;20228;-49
2021/11/09 01:14:07;;;;;;;8.70;6.77;;;8.90;59.20;;;;;;5008927;28;20680;-49
2021/11/09 01:16:33;;;;;;;11.00;7.00;;;8.90;59.50;;;;;;5005944;28;20245;-49
2021/11/09 01:19:03;;;;;;;9.50;7.43;;;8.90;59.40;;;;;;5006899;28;20528;-48
2021/11/09 01:21:29;;;;;;;7.60;5.90;;;8.70;59.70;;;;;;5008552;28;20484;-48
2021/11/09 01:23:55;;;;;;;8.93;7.17;;;8.80;60.20;;;;;;5009413;28;20488;-49
2021/11/09 01:26:22;;;;;;;9.77;6.87;;;8.80;60.20;;;;;;5011673;28;20661;-45
2021/11/09 01:28:51;;;;;;;9.23;6.70;;;8.80;60.20;;;;;;5011105;28;20449;-48
2021/11/09 01:31:17;;;;;;;10.00;6.80;;;8.80;60.60;;;;;;5012371;28;20437;-48
2021/11/09 01:33:43;;;;;;;9.10;7.43;;;8.90;59.90;;;;;;5010119;28;20543;-45
2021/11/09 01:36:09;;;;;;;8.70;6.63;;;9.00;59.60;;;;;;5010937;28;20237;-49
2021/11/09 01:38:36;;;;;;;8.43;6.80;;;9.00;59.60;;;;;;5010203;28;20444;-46
2021/11/09 01:41:02;;;;;;;8.53;6.80;;;9.10;59.40;;;;;;5013276;28;20437;-48
2021/11/09 01:43:29;;;;;;;8.80;6.97;;;9.10;59.20;;;;;;5012151;28;20436;-46
2021/11/09 01:45:55;;;;;;;7.07;6.37;;;8.80;59.40;;;;;;5011687;28;21250;-47
2021/11/09 01:48:22;;;;;;;8.50;7.60;;;8.40;60.80;;;;;;5008047;28;20802;-49
2021/11/09 01:50:52;;;;;;;9.13;6.90;;;8.40;61.40;;;;;;5012222;28;20498;-46
2021/11/09 01:53:18;;;;;;;10.17;7.20;;;8.50;61.30;;;;;;5013134;28;20453;-49
2021/11/09 01:55:45;;;;;;;12.93;6.40;;;8.30;61.80;;;;;;5011737;28;20444;-49
2021/11/09 01:58:12;;;;;;;8.77;6.30;;;8.40;62.30;;;;;;5009742;28;20444;-45
2021/11/09 02:00:42;;;;;;;7.70;6.60;;;8.30;62.10;;;;;;5011118;28;20487;-48
2021/11/09 02:03:08;;;;;;;10.83;7.50;;;8.20;62.30;;;;;;4993806;28;20816;-47
2021/11/09 02:05:34;;;;;;;12.87;7.50;;;8.10;62.90;;;;;;5007653;28;20444;-47
2021/11/09 02:08:01;;;;;;;9.20;7.10;;;8.50;62.50;;;;;;5008018;28;20237;-45
2021/11/09 02:10:31;;;;;;;9.47;6.80;;;8.70;61.40;;;;;;5010378;28;20452;-45
2021/11/09 02:12:57;;;;;;;9.33;7.20;;;8.70;60.50;;;;;;5011577;28;20595;-44
2021/11/09 02:15:23;;;;;;;10.03;7.00;;;8.70;60.90;;;;;;4993414;28;21310;-45
2021/11/09 02:17:50;;;;;;;11.90;6.67;;;8.80;60.70;;;;;;5009530;28;20492;-46
2021/11/09 02:20:19;;;;;;;9.73;6.87;;;8.70;60.50;;;;;;5011288;28;20459;-45
2021/11/09 02:22:47;;;;;;;9.40;6.90;;;8.50;60.80;;;;;;5012184;28;20448;-46
2021/11/09 02:25:15;;;;;;;12.13;6.90;;;8.50;61.50;;;;;;5010559;28;20449;-45
2021/11/09 02:27:42;;;;;;;7.47;6.77;;;8.60;61.80;;;;;;5009351;28;20852;-48
2021/11/09 02:30:12;;;;;;;9.90;7.47;;;8.70;61.50;;;;;;5009773;28;20444;-46
2021/11/09 02:32:37;;;;;;;8.23;6.70;;;8.90;60.90;;;;;;5010549;28;20914;-44
2021/11/09 02:35:05;;;;;;;12.63;7.57;;;9.00;60.50;;;;;;5006492;28;20528;-46
2021/11/09 02:37:31;;;;;;;10.23;7.17;;;9.00;60.10;;;;;;5012838;28;20237;-44
2021/11/09 02:39:57;;;;;;;17.70;7.90;;;9.10;60.00;;;;;;5008730;28;20445;-48
2021/11/09 02:42:24;;;;;;;7.40;6.00;;;9.20;59.80;;;;;;5002833;28;20282;-45
2021/11/09 02:45:00;;;;;;;7.63;6.13;;;9.20;59.50;;;;;;5008163;28;20460;-45
2021/11/09 02:47:29;;;;;;;10.30;7.03;;;9.30;59.50;;;;;;5006231;28;20480;-46
2021/11/09 02:50:08;;;;;;;10.30;6.73;;;9.10;59.50;;;;;;5006534;28;20488;-47
2021/11/09 02:52:36;;;;;;;7.63;6.70;;;9.20;59.70;;;;;;5008646;28;20543;-47
2021/11/09 02:55:10;;;;;;;33.73;18.33;;;9.20;59.60;;;;;;5008908;28;20556;-47
2021/11/09 02:57:44;;;;;;;23.43;13.83;;;9.30;59.70;;;;;;5010353;28;20521;-45
2021/11/09 03:02:50;;;;;;;12.23;7.70;;;9.30;59.20;;;;;;5007624;28;20476;-46
2021/11/09 03:10:26;;;;;;;10.93;7.23;;;9.30;59.50;;;;;;5009873;28;20248;-48
2021/11/09 03:12:51;;;;;;;15.70;8.63;;;9.40;59.50;;;;;;5009838;28;20548;-49
2021/11/09 03:15:26;;;;;;;8.97;7.63;;;9.50;59.10;;;;;;5011939;28;20535;-48
2021/11/09 03:18:02;;;;;;;8.23;6.33;;;9.50;59.00;;;;;;5011810;28;20233;-45
2021/11/09 03:47:21;;;;;;;9.50;6.77;;;9.20;59.30;;;;;;5010893;28;20480;-45
2021/11/09 03:49:48;;;;;;;10.73;7.97;;;9.30;59.00;;;;;;5011774;28;20436;-48
2021/11/09 03:52:21;;;;;;;7.77;6.70;;;9.20;58.80;;;;;;5011239;28;20425;-47
2021/11/09 03:54:49;;;;;;;10.70;7.20;;;9.30;59.00;;;;;;5011361;28;20947;-45
2021/11/09 03:57:24;;;;;;;10.47;7.97;;;9.30;58.80;;;;;;5007715;28;20553;-45
2021/11/09 04:04:57;;;;;;;8.40;7.17;;;9.40;58.40;;;;;;5011373;28;20447;-45
2021/11/09 04:08:32;;;;;;;9.70;6.77;;;9.40;58.40;;;;;;5011997;28;20202;-46
2021/11/09 04:10:31;;;;;;;6.67;5.97;;;9.30;58.50;;;;;;4988227;28;20445;-50
2021/11/09 04:13:23;;;;;;;12.73;7.67;;;9.30;58.40;;;;;;5009869;28;20587;-45
2021/11/09 04:26:27;;;;;;;14.00;9.47;;;9.20;58.30;;;;;;5004191;28;20441;-50
2021/11/09 04:43:16;;;;;;;7.87;6.93;;;9.10;58.10;;;;;;5003951;28;20233;-50
2021/11/09 05:09:09;;;;;;;10.07;6.93;;;8.80;58.20;;;;;;5013555;28;20474;-47
2021/11/09 05:11:37;;;;;;;12.93;7.90;;;8.90;58.10;;;;;;5006084;28;20436;-50
2021/11/09 05:14:07;;;;;;;9.77;7.07;;;8.90;58.00;;;;;;5011920;28;20506;-48
2021/11/09 05:16:34;;;;;;;7.43;6.70;;;8.90;58.00;;;;;;5011965;28;21017;-47
2021/11/09 05:19:00;;;;;;;14.23;7.67;;;8.90;58.00;;;;;;5013652;28;20445;-49
2021/11/09 05:21:26;;;;;;;10.17;7.43;;;8.90;57.90;;;;;;5010845;28;20479;-50
2021/11/09 05:23:51;;;;;;;10.00;7.63;;;8.80;57.80;;;;;;5012137;28;20531;-50
2021/11/09 05:26:17;;;;;;;12.77;8.10;;;8.80;58.00;;;;;;5010580;28;20289;-49
2021/11/09 05:28:45;;;;;;;9.30;6.53;;;8.80;58.00;;;;;;5012849;28;20189;-50
2021/11/09 05:31:11;;;;;;;10.87;6.93;;;8.80;58.10;;;;;;5010177;28;20198;-50
2021/11/09 05:33:37;;;;;;;9.47;8.03;;;8.80;58.30;;;;;;5011642;28;20514;-51
2021/11/09 05:36:05;;;;;;;9.70;7.47;;;8.70;58.20;;;;;;5012831;28;21078;-52
2021/11/09 05:38:43;;;;;;;8.10;6.83;;;8.60;58.40;;;;;;5011282;28;20194;-50
2021/11/09 05:41:10;;;;;;;9.63;6.90;;;8.70;58.40;;;;;;5012575;28;20448;-49
2021/11/09 05:43:36;;;;;;;10.30;8.30;;;8.70;58.80;;;;;;5011459;28;20456;-52
2021/11/09 05:46:01;;;;;;;10.40;7.77;;;8.70;58.20;;;;;;5011149;28;20920;-51
2021/11/09 05:48:27;;;;;;;13.17;7.80;;;8.70;57.90;;;;;;5009094;28;20200;-48
2021/11/09 05:50:53;;;;;;;10.23;6.60;;;8.70;57.90;;;;;;5006001;28;20201;-52
2021/11/09 05:53:19;;;;;;;8.00;6.30;;;8.70;58.00;;;;;;5009401;28;20225;-50
2021/11/09 05:55:45;;;;;;;9.40;6.97;;;8.70;57.80;;;;;;5012994;28;20445;-50
2021/11/09 05:58:11;;;;;;;11.17;7.80;;;8.70;57.60;;;;;;5012114;28;20202;-50
2021/11/09 06:00:37;;;;;;;10.90;7.10;;;8.70;57.60;;;;;;5012834;28;20429;-51
2021/11/09 06:03:02;;;;;;;10.77;7.07;;;8.70;57.60;;;;;;5012495;28;20440;-49
2021/11/09 06:05:28;;;;;;;10.60;7.30;;;8.70;57.70;;;;;;5011108;28;20217;-49
2021/11/09 06:07:54;;;;;;;11.20;7.20;;;8.60;57.70;;;;;;5013992;28;20198;-50
2021/11/09 06:10:20;;;;;;;13.40;7.33;;;8.60;57.50;;;;;;5009474;28;20186;-51
2021/11/09 06:12:46;;;;;;;11.90;7.50;;;8.60;57.50;;;;;;5014034;28;20193;-52
2021/11/09 06:15:12;;;;;;;12.00;7.80;;;8.70;57.90;;;;;;5009245;28;20472;-49
2021/11/09 06:17:38;;;;;;;12.80;8.07;;;8.90;59.80;;;;;;5012927;28;20495;-49
2021/11/09 06:20:05;;;;;;;9.07;6.53;;;9.20;61.20;;;;;;5008543;28;20440;-46
2021/11/09 06:22:31;;;;;;;8.00;6.80;;;9.60;61.70;;;;;;5009282;28;20307;-48
2021/11/09 06:24:57;;;;;;;9.50;6.83;;;9.80;60.10;;;;;;5011586;28;20449;-49
2021/11/09 06:27:23;;;;;;;17.30;7.10;;;10.00;58.20;;;;;;5012135;28;20448;-49
2021/11/09 06:29:51;;;;;;;9.47;6.47;;;10.20;57.60;;;;;;5011263;28;20445;-49
2021/11/09 06:32:17;;;;;;;7.97;6.83;;;10.30;56.30;;;;;;5009434;28;20433;-48
2021/11/09 06:34:43;;;;;;;9.87;7.10;;;10.40;56.00;;;;;;5008861;28;20444;-49
2021/11/09 06:37:09;;;;;;;8.33;6.90;;;10.60;55.50;;;;;;5009701;28;20842;-50
2021/11/09 06:39:36;;;;;;;7.77;6.90;;;10.70;54.50;;;;;;5011686;28;20437;-50
2021/11/09 06:42:02;;;;;;;8.50;6.90;;;10.80;52.50;;;;;;5011960;28;20441;-46
2021/11/09 06:44:28;;;;;;;8.23;6.87;;;10.80;52.10;;;;;;5011788;28;20436;-48
2021/11/09 06:46:53;;;;;;;10.43;6.20;;;10.90;51.80;;;;;;5010425;28;20484;-49
2021/11/09 06:49:19;;;;;;;7.77;6.17;;;10.90;51.50;;;;;;5012740;28;20473;-48
2021/11/09 06:51:44;;;;;;;10.27;7.73;;;10.90;51.30;;;;;;5012709;28;20194;-48
2021/11/09 06:54:10;;;;;;;10.70;8.03;;;11.10;51.40;;;;;;5013527;28;20186;-48
2021/11/09 06:56:36;;;;;;;8.53;7.73;;;11.30;51.30;;;;;;5011138;28;20237;-48
2021/11/09 06:59:04;;;;;;;9.80;7.70;;;11.60;50.70;;;;;;5012926;28;20441;-50
2021/11/09 07:01:31;;;;;;;13.33;8.23;;;11.90;49.70;;;;;;5011953;28;20920;-47
2021/11/09 07:03:57;;;;;;;9.73;8.73;;;12.10;49.00;;;;;;5012653;28;20452;-48
2021/11/09 07:06:24;;;;;;;9.73;7.40;;;12.50;48.60;;;;;;5011628;28;21128;-48
2021/11/09 07:08:50;;;;;;;9.83;8.17;;;12.80;47.30;;;;;;5012534;28;20240;-48
2021/11/09 07:11:16;;;;;;;12.33;8.73;;;13.10;47.00;;;;;;5010712;28;20471;-50
2021/11/09 07:13:42;;;;;;;8.67;7.47;;;13.40;47.00;;;;;;5012806;28;20425;-46
2021/11/09 07:16:10;;;;;;;9.23;8.17;;;13.80;46.30;;;;;;5011258;28;20677;-49
2021/11/09 07:18:35;;;;;;;8.63;7.73;;;14.20;45.10;;;;;;5011610;28;20441;-49
2021/11/09 07:21:01;;;;;;;7.93;6.43;;;14.50;44.40;;;;;;5010904;28;20993;-47
2021/11/09 07:23:27;;;;;;;9.27;6.97;;;14.60;44.20;;;;;;5010616;28;20236;-49
2021/11/09 07:25:53;;;;;;;7.57;6.83;;;14.80;43.90;;;;;;5008614;28;20194;-49
2021/11/09 07:28:20;;;;;;;12.97;7.20;;;14.90;43.90;;;;;;5012819;28;20201;-49
2021/11/09 07:30:55;;;;;;;10.00;6.83;;;14.90;43.90;;;;;;5011740;28;20224;-49
2021/11/09 07:33:21;;;;;;;6.67;6.07;;;15.00;44.00;;;;;;5010600;28;20433;-48
2021/11/09 07:35:47;;;;;;;7.60;6.70;;;15.10;43.80;;;;;;5010248;28;20437;-50
2021/11/09 07:38:13;;;;;;;9.20;7.20;;;15.10;43.80;;;;;;5009314;28;20459;-51
2021/11/09 07:40:38;;;;;;;10.60;8.97;;;15.00;43.60;;;;;;5011183;28;20288;-47
2021/11/09 07:43:04;;;;;;;10.13;8.60;;;14.90;43.90;;;;;;5011109;28;20194;-48
2021/11/09 07:45:30;;;;;;;9.13;8.07;;;14.80;44.20;;;;;;5011318;28;20190;-49
2021/11/09 07:47:57;;;;;;;10.80;8.20;;;14.70;44.40;;;;;;5010726;28;20433;-44
2021/11/09 07:50:24;;;;;;;11.23;7.70;;;14.50;44.50;;;;;;5010943;28;20449;-48
2021/11/09 07:52:53;;;;;;;13.10;7.60;;;14.30;44.90;;;;;;5011773;28;20452;-50
2021/11/09 07:55:20;;;;;;;8.37;6.20;;;14.10;45.30;;;;;;5011153;28;20679;-48
2021/11/09 07:57:50;;;;;;;9.90;8.90;;;13.90;46.00;;;;;;5011513;28;20489;-47
2021/11/09 08:00:22;;;;;;;12.53;9.60;;;13.70;46.50;;;;;;5008501;28;20548;-48
2021/11/09 08:06:08;;;;;;;13.27;8.97;;;13.20;46.50;;;;;;5002152;28;20437;-48
2021/11/09 08:09:18;;;;;;;10.77;7.97;;;13.00;47.70;;;;;;5011320;28;20530;-50
2021/11/09 08:11:20;;;;;;;14.40;8.60;;;12.80;48.90;;;;;;4997666;28;20437;-51
2021/11/09 08:13:45;;;;;;;12.60;7.57;;;12.70;49.00;;;;;;5008679;28;20441;-51
2021/11/09 08:16:11;;;;;;;9.90;7.90;;;12.60;49.30;;;;;;5007799;28;20964;-48
2021/11/09 08:18:37;;;;;;;11.07;7.00;;;12.50;49.60;;;;;;5003231;28;20190;-48
2021/11/09 08:21:02;;;;;;;9.97;7.73;;;12.40;50.00;;;;;;5009723;28;20209;-49
2021/11/09 08:23:28;;;;;;;8.50;7.60;;;12.50;50.40;;;;;;5010917;28;20284;-50
2021/11/09 08:25:54;;;;;;;12.13;7.43;;;12.60;50.20;;;;;;5008035;28;20259;-47
2021/11/09 08:28:21;;;;;;;12.07;7.90;;;12.60;50.00;;;;;;5011431;28;20256;-46
2021/11/09 08:30:52;;;;;;;10.00;7.53;;;12.50;49.70;;;;;;5008859;28;21197;-47
2021/11/09 08:33:20;;;;;;;8.37;7.50;;;12.50;49.60;;;;;;5002392;28;20802;-45
2021/11/09 08:35:46;;;;;;;10.67;7.77;;;12.60;50.00;;;;;;5010723;28;20437;-46
2021/11/09 08:38:12;;;;;;;10.87;7.83;;;12.60;49.70;;;;;;5010940;28;20491;-46
2021/11/09 08:40:39;;;;;;;9.40;6.27;;;12.60;49.80;;;;;;5010884;28;20210;-47
2021/11/09 08:43:05;;;;;;;10.13;8.00;;;12.70;50.20;;;;;;5012135;28;20839;-49
2021/11/09 08:45:44;;;;;;;9.97;7.83;;;12.70;50.10;;;;;;5011598;28;20436;-49
2021/11/09 08:48:13;;;;;;;8.23;7.40;;;12.80;49.90;;;;;;5010549;28;20441;-49
2021/11/09 08:50:39;;;;;;;11.60;6.90;;;12.90;49.70;;;;;;5009189;28;20443;-51
2021/11/09 08:53:14;;;;;;;12.30;7.23;;;13.00;49.60;;;;;;5009985;28;20444;-50
2021/11/09 08:56:05;;;;;;;9.33;7.00;;;13.00;49.30;;;;;;4998059;28;20473;-47
2021/11/09 09:06:31;;;;;;;8.53;7.40;;;13.30;49.20;;;;;;5009043;28;20794;-47
2021/11/09 09:08:59;;;;;;;11.10;6.57;;;13.40;49.40;;;;;;5010834;28;20564;-46
2021/11/09 09:11:24;;;;;;;12.10;8.00;;;13.50;49.80;;;;;;5012927;28;20432;-51
2021/11/09 09:13:50;;;;;;;9.30;7.93;;;13.60;49.40;;;;;;5004403;28;21052;-45
2021/11/09 09:16:16;;;;;;;14.63;6.90;;;13.70;48.30;;;;;;5009700;28;20965;-47
2021/11/09 09:18:43;;;;;;;8.90;7.60;;;13.40;48.40;;;;;;5008308;28;20194;-50
2021/11/09 09:21:14;;;;;;;9.80;7.00;;;13.40;49.50;;;;;;5008778;28;20449;-46
2021/11/09 09:23:48;;;;;;;9.83;7.67;;;13.80;49.40;;;;;;5009197;28;20429;-47
2021/11/09 09:26:38;;;;;;;7.40;6.63;;;14.10;48.60;;;;;;5008404;28;20437;-49
2021/11/09 09:52:10;;;;;;;8.77;7.13;;;14.90;46.60;;;;;;5001778;28;20487;-46
2021/11/09 09:56:24;;;;;;;6.90;5.00;;;15.90;45.30;;;;;;4998797;28;20918;-51
2021/11/09 09:58:50;;;;;;;7.50;5.80;;;15.70;44.50;;;;;;5011933;28;20437;-51
2021/11/09 10:01:17;;;;;;;6.60;5.30;;;15.50;45.30;;;;;;5012561;28;20453;-51
2021/11/09 10:03:43;;;;;;;7.33;4.10;;;15.60;46.00;;;;;;5013126;28;20186;-50
2021/11/09 10:06:09;;;;;;;5.30;4.50;;;15.70;44.40;;;;;;5011576;28;20437;-49
2021/11/09 10:08:48;;;;;;;6.20;4.80;;;15.80;44.70;;;;;;5008088;28;20601;-47
2021/11/09 10:11:38;;;;;;;6.03;4.50;;;16.00;46.00;;;;;;5010980;28;20451;-50
2021/11/09 10:14:06;;;;;;;7.30;4.93;;;16.30;44.00;;;;;;4990495;28;20971;-47
2021/11/09 10:16:34;;;;;;;6.90;3.50;;;16.60;43.70;;;;;;5010903;28;20508;-50
2021/11/09 10:19:00;;;;;;;6.00;3.50;;;16.70;42.60;;;;;;5018073;28;20520;-46
2021/11/09 10:21:41;;;;;;;4.47;3.20;;;16.80;42.40;;;;;;5009659;28;20429;-50
2021/11/09 10:24:29;;;;;;;8.67;3.40;;;16.90;42.50;;;;;;5010232;28;20543;-50
2021/11/09 10:27:10;;;;;;;5.27;3.60;;;16.80;42.10;;;;;;5011017;28;20440;-51
2021/11/09 10:29:37;;;;;;;9.07;4.50;;;16.70;41.80;;;;;;5011245;28;20432;-49
2021/11/09 10:32:15;;;;;;;5.20;3.50;;;16.40;43.00;;;;;;5008811;28;20436;-49
2021/11/09 10:34:41;;;;;;;5.83;3.50;;;16.60;42.50;;;;;;5012281;28;20437;-49
2021/11/09 10:37:20;;;;;;;4.20;3.27;;;16.30;42.30;;;;;;5011169;28;20492;-48
2021/11/09 10:39:49;;;;;;;5.40;3.40;;;16.10;42.40;;;;;;5009777;28;20476;-50
2021/11/09 10:42:17;;;;;;;4.27;3.17;;;16.20;42.50;;;;;;5009913;28;20441;-49
2021/11/09 10:44:56;;;;;;;5.00;2.90;;;15.90;42.80;;;;;;5016197;28;20429;-51
2021/11/09 10:47:31;;;;;;;12.83;3.70;;;16.20;43.10;;;;;;5006480;28;20440;-51
2021/11/09 10:49:56;;;;;;;14.70;3.57;;;15.90;42.00;;;;;;5011086;28;20494;-49
2021/11/09 10:52:31;;;;;;;7.30;3.30;;;15.70;42.70;;;;;;5011776;28;20441;-50
2021/11/09 10:55:04;;;;;;;6.93;3.20;;;16.00;42.80;;;;;;5009352;28;20225;-47
2021/11/09 10:58:17;;;;;;;4.27;3.20;;;16.00;42.80;;;;;;5009556;28;20526;-48
2021/11/09 11:03:37;;;;;;;10.83;3.00;;;16.00;42.40;;;;;;5010570;28;20449;-46
2021/11/09 11:06:26;;;;;;;6.27;2.97;;;16.00;42.80;;;;;;5008578;28;20494;-47
2021/11/09 11:09:08;;;;;;;7.43;3.00;;;16.00;43.00;;;;;;5011388;28;20480;-48
2021/11/09 11:11:38;;;;;;;5.10;2.97;;;15.60;41.00;;;;;;5011698;28;20441;-49
2021/11/09 11:14:07;;;;;;;4.10;3.10;;;15.20;42.90;;;;;;5011836;28;20441;-50
2021/11/09 11:16:47;;;;;;;4.40;2.97;;;15.30;43.50;;;;;;5011619;28;20491;-50
2021/11/09 11:19:16;;;;;;;5.60;3.43;;;15.70;43.70;;;;;;5008620;28;20536;-49
2021/11/09 11:21:42;;;;;;;6.57;3.23;;;15.80;42.10;;;;;;5009640;28;20436;-47
2021/11/09 11:24:10;;;;;;;7.60;3.27;;;15.80;43.20;;;;;;5015428;28;20433;-50
2021/11/09 11:26:37;;;;;;;7.00;2.30;;;16.00;42.00;;;;;;5010510;28;20216;-46
2021/11/09 11:29:04;;;;;;;4.60;2.40;;;15.70;42.50;;;;;;5010127;28;20444;-48
2021/11/09 11:31:30;;;;;;;7.53;2.47;;;15.50;41.70;;;;;;5010659;28;20494;-45
2021/11/09 11:33:56;;;;;;;4.07;2.73;;;15.20;41.30;;;;;;5016693;28;20987;-46
2021/11/09 11:36:22;;;;;;;5.73;2.50;;;14.70;41.90;;;;;;5010488;28;20829;-45
2021/11/09 11:38:51;;;;;;;4.50;2.30;;;14.90;43.00;;;;;;5011161;28;20425;-46
2021/11/09 11:41:21;;;;;;;5.10;2.10;;;15.00;43.30;;;;;;5007006;28;20444;-46
2021/11/09 11:43:46;;;;;;;8.90;3.03;;;15.10;42.50;;;;;;5003553;28;20454;-46
2021/11/09 11:46:36;;;;;;;7.43;4.07;;;15.40;44.10;;;;;;5008955;28;20442;-45
2021/11/09 11:49:07;;;;;;;6.70;2.80;;;16.10;44.80;;;;;;4998774;28;20225;-47
2021/11/09 11:51:59;;;;;;;4.30;2.90;;;17.10;43.80;;;;;;5010811;28;20916;-45
2021/11/09 11:55:18;;;;;;;3.80;2.20;;;18.00;41.90;;;;;;5011495;28;20779;-47
2021/11/09 11:58:15;;;;;;;5.70;2.90;;;18.70;40.00;;;;;;4986658;28;20504;-46
2021/11/09 12:00:52;;;;;;;3.60;1.73;;;19.10;38.40;;;;;;4987100;28;20432;-46
2021/11/09 12:03:17;;;;;;;5.63;2.40;;;19.60;38.30;;;;;;5011032;28;20448;-45
2021/11/09 12:05:45;;;;;;;5.87;3.13;;;20.00;38.00;;;;;;5009302;28;20452;-47
2021/11/09 12:08:14;;;;;;;4.87;2.63;;;20.30;37.20;;;;;;5011162;28;20321;-45
2021/11/09 12:10:51;;;;;;;5.07;2.50;;;20.40;35.80;;;;;;5011147;28;20491;-44
2021/11/09 12:13:21;;;;;;;5.13;2.63;;;20.50;35.90;;;;;;5010510;28;20780;-44
2021/11/09 12:15:56;;;;;;;2.90;1.83;;;20.50;34.90;;;;;;5009840;28;20437;-43
2021/11/09 12:18:27;;;;;;;2.77;2.20;;;20.70;35.60;;;;;;5009609;28;20510;-44
2021/11/09 12:21:08;;;;;;;3.63;2.10;;;20.80;34.40;;;;;;5010862;28;20579;-46
2021/11/09 12:23:35;;;;;;;5.40;2.73;;;20.20;35.50;;;;;;5011089;28;20958;-46
2021/11/09 12:26:01;;;;;;;2.93;1.70;;;20.20;35.10;;;;;;5010582;28;20429;-48
2021/11/09 12:28:36;;;;;;;3.00;2.60;;;19.70;35.80;;;;;;5012615;28;20448;-43
2021/11/09 12:31:13;;;;;;;2.80;1.93;;;19.90;35.50;;;;;;5009662;28;20432;-46
2021/11/09 12:33:49;;;;;;;5.37;2.20;;;20.20;35.30;;;;;;5007419;28;20502;-44
2021/11/09 12:36:20;;;;;;;3.17;1.87;;;19.90;34.10;;;;;;5005536;28;20522;-47
2021/11/09 12:38:55;;;;;;;6.63;2.23;;;19.60;34.30;;;;;;4992082;28;20461;-43
2021/11/09 12:41:24;;;;;;;4.33;2.30;;;19.00;34.90;;;;;;5007790;28;21245;-47
2021/11/09 12:43:51;;;;;;;3.73;2.20;;;19.00;35.60;;;;;;5008818;28;20433;-48
2021/11/09 12:49:05;;;;;;;3.30;2.10;;;18.70;35.70;;;;;;5008921;28;20587;-47
2021/11/09 12:51:37;;;;;;;3.90;2.17;;;18.40;35.60;;;;;;5009153;28;20479;-50
2021/11/09 12:54:15;;;;;;;5.20;2.20;;;18.00;36.30;;;;;;5008613;28;20520;-47
2021/11/09 12:56:46;;;;;;;3.77;2.43;;;18.00;36.70;;;;;;5006269;28;20955;-46
2021/11/09 13:09:51;;;;;;;4.30;1.83;;;17.90;36.60;;;;;;5003732;28;20491;-49
2021/11/09 13:12:21;;;;;;;2.13;1.93;;;17.80;37.60;;;;;;5005734;28;20484;-47
2021/11/09 13:14:49;;;;;;;2.83;2.27;;;17.60;37.40;;;;;;5008976;28;20445;-48
2021/11/09 13:17:22;;;;;;;3.77;2.10;;;18.00;36.70;;;;;;5006822;28;20477;-49
2021/11/09 13:20:06;;;;;;;6.30;1.90;;;18.00;36.40;;;;;;5011087;28;22136;-46
2021/11/09 13:22:31;;;;;;;3.23;1.93;;;18.00;36.40;;;;;;5014165;28;20463;-50
2021/11/09 13:25:03;;;;;;;3.80;2.57;;;18.00;36.50;;;;;;5013770;28;20436;-45
2021/11/09 13:27:42;;;;;;;2.87;1.93;;;18.00;36.40;;;;;;5013801;28;20798;-47
2021/11/09 13:30:14;;;;;;;6.97;2.70;;;18.30;37.00;;;;;;5006836;28;20448;-47
2021/11/09 13:32:42;;;;;;;11.03;2.87;;;18.30;35.80;;;;;;4996669;28;20473;-49
2021/11/09 13:35:17;;;;;;;8.27;7.40;;;18.60;35.80;;;;;;5015726;28;20566;-43
2021/11/09 13:37:43;;;;;;;3.93;2.37;;;18.40;36.20;;;;;;5012112;28;20479;-49
2021/11/09 13:40:09;;;;;;;4.33;2.30;;;18.20;36.00;;;;;;5012233;28;20923;-44
2021/11/09 13:42:37;;;;;;;7.60;2.67;;;18.20;36.90;;;;;;5014163;28;20443;-47
2021/11/09 13:45:03;;;;;;;4.23;2.50;;;18.10;36.20;;;;;;5014471;28;20565;-44
2021/11/09 13:47:31;;;;;;;3.50;2.17;;;17.90;36.80;;;;;;5006255;28;20820;-44
2021/11/09 13:50:12;;;;;;;2.50;1.70;;;18.00;36.80;;;;;;5014074;28;20445;-48
2021/11/09 13:52:45;;;;;;;2.40;2.03;;;18.30;36.30;;;;;;5014065;28;20464;-44
2021/11/09 13:55:12;;;;;;;3.90;2.30;;;17.90;36.80;;;;;;5017968;28;20472;-45
2021/11/09 13:57:38;;;;;;;3.37;2.27;;;18.10;36.50;;;;;;5013792;28;20530;-47
2021/11/09 14:00:49;;;;;;;3.90;2.10;;;18.40;36.00;;;;;;5013311;28;20461;-48
2021/11/09 14:06:19;;;;;;;3.50;2.47;;;18.30;35.80;;;;;;5012862;28;20530;-48
2021/11/09 14:08:59;;;;;;;4.47;2.40;;;18.40;35.70;;;;;;5009880;28;20559;-47
2021/11/09 14:11:56;;;;;;;3.80;2.90;;;18.40;35.60;;;;;;5013269;28;20506;-48
2021/11/09 14:14:36;;;;;;;4.47;2.30;;;18.30;35.20;;;;;;5013412;28;20445;-47
2021/11/09 14:17:02;;;;;;;3.57;2.50;;;18.30;35.30;;;;;;5014077;28;21070;-47
2021/11/09 14:19:30;;;;;;;2.27;2.07;;;18.00;35.50;;;;;;5013500;28;20924;-47
2021/11/09 14:21:57;;;;;;;7.80;2.93;;;17.90;36.20;;;;;;5016909;28;21226;-47
2021/11/09 14:24:28;;;;;;;4.20;2.20;;;18.30;36.00;;;;;;5012388;28;20448;-48
2021/11/09 14:27:12;;;;;;;4.70;2.90;;;18.60;35.70;;;;;;5012745;28;20440;-47
2021/11/09 14:29:53;;;;;;;4.50;2.20;;;18.80;35.80;;;;;;5013521;28;20488;-49
2021/11/09 14:32:24;;;;;;;2.97;1.67;;;18.50;35.50;;;;;;5011656;28;20421;-46
2021/11/09 14:35:25;;;;;;;2.47;2.00;;;18.30;35.70;;;;;;5009974;28;20455;-45
2021/11/09 14:38:06;;;;;;;4.27;2.53;;;18.30;35.60;;;;;;5010156;28;20544;-44
2021/11/09 14:40:52;;;;;;;3.03;1.97;;;18.40;35.60;;;;;;5011021;28;20440;-45
2021/11/09 14:43:42;;;;;;;3.50;2.00;;;18.20;36.20;;;;;;5007187;28;20452;-47
2021/11/09 14:46:18;;;;;;;3.23;2.30;;;18.10;35.40;;;;;;5005072;28;20945;-45
2021/11/09 14:51:29;;;;;;;4.57;2.30;;;17.70;36.00;;;;;;5010620;28;20866;-44
2021/11/09 14:53:59;;;;;;;5.93;2.00;;;17.70;36.60;;;;;;5010539;28;20234;-44
2021/11/09 14:56:36;;;;;;;3.13;2.03;;;17.70;36.60;;;;;;5010224;28;20472;-46
2021/11/09 14:59:07;;;;;;;2.53;2.33;;;17.80;36.40;;;;;;5011557;28;20967;-48
2021/11/09 15:01:46;;;;;;;4.13;2.57;;;17.90;36.30;;;;;;5011408;28;20459;-44
2021/11/09 15:04:18;;;;;;;4.63;2.83;;;18.00;36.10;;;;;;5007437;28;20536;-47
2021/11/09 15:07:05;;;;;;;4.57;2.30;;;18.10;36.10;;;;;;5002366;28;20798;-44
2021/11/09 15:13:19;;;;;;;5.67;3.03;;;18.10;35.80;;;;;;5010092;28;20463;-45
2021/11/09 15:29:14;;;;;;;7.67;4.20;;;17.90;36.30;;;;;;5009336;28;20444;-48
2021/11/09 15:31:37;;;;;;;10.33;5.83;;;17.70;36.50;;;;;;5003798;28;20464;-47
2021/11/09 15:39:07;;;;;;;5.30;4.03;;;17.70;36.80;;;;;;5008980;28;20493;-45
2021/11/09 15:41:33;;;;;;;3.90;3.43;;;17.70;36.90;;;;;;4992451;28;20464;-46
2021/11/09 15:43:59;;;;;;;3.10;2.20;;;17.40;37.40;;;;;;5010732;28;20436;-48
2021/11/09 15:46:24;;;;;;;3.90;2.80;;;17.20;37.50;;;;;;5011340;28;20197;-44
2021/11/09 15:48:50;;;;;;;3.53;3.23;;;17.20;37.70;;;;;;5010515;28;20253;-44
2021/11/09 15:51:20;;;;;;;8.63;3.43;;;17.10;37.90;;;;;;4991994;28;20189;-48